createdAt,value
2018-05-21T00:02:45.720Z,102001.05
2018-05-21T00:07:37.430Z,102001.03
2018-05-21T00:12:29.837Z,101997.87
2018-05-21T00:17:21.504Z,101984.34
2018-05-21T00:22:12.491Z,101985.87
2018-05-21T00:27:04.159Z,101980.16
2018-05-21T00:31:55.134Z,101975.66
2018-05-21T00:36:46.813Z,101975.36
2018-05-21T00:41:37.744Z,101974.66
2018-05-21T00:46:28.715Z,101972.41
2018-05-21T00:51:20.440Z,101978.82
2018-05-21T00:56:12.856Z,101979.53
2018-05-21T01:01:03.811Z,101978.06
2018-05-21T01:05:54.693Z,101984.47
2018-05-21T01:10:46.369Z,101979.86
2018-05-21T01:15:37.361Z,101980.55
2018-05-21T01:20:28.293Z,101974.20
2018-05-21T01:25:19.212Z,101977.55
2018-05-21T01:30:10.133Z,101975.32
2018-05-21T01:35:01.052Z,101987.06
2018-05-21T01:39:53.745Z,101993.31
2018-05-21T01:44:45.439Z,101999.41
2018-05-21T01:49:36.329Z,102000.18
2018-05-21T01:54:27.983Z,101993.38
2018-05-21T01:59:18.899Z,101992.24
2018-05-21T02:04:09.852Z,101984.42
2018-05-21T02:09:00.754Z,101975.55
2018-05-21T02:13:51.692Z,101978.89
2018-05-21T02:18:42.629Z,101977.23
2018-05-21T02:23:33.577Z,101974.34
2018-05-21T02:28:25.221Z,101964.67
2018-05-21T02:33:16.889Z,101966.19
2018-05-21T02:38:07.869Z,101956.84
2018-05-21T02:42:59.522Z,101962.91
2018-05-21T02:47:51.155Z,101961.73
2018-05-21T02:52:42.834Z,101968.63
2018-05-21T02:57:33.890Z,101969.50
2018-05-21T03:02:26.295Z,101964.80
2018-05-21T03:07:17.217Z,101965.22
2018-05-21T03:12:08.104Z,101965.94
2018-05-21T03:16:59.833Z,101961.30
2018-05-21T03:21:50.755Z,101962.55
2018-05-21T03:26:42.429Z,101961.58
2018-05-21T03:31:33.342Z,101970.86
2018-05-21T03:36:25.000Z,101968.12
2018-05-21T03:41:15.930Z,101972.72
2018-05-21T03:46:06.847Z,101974.12
2018-05-21T03:50:58.527Z,101981.33
2018-05-21T03:55:49.432Z,101976.13
2018-05-21T04:01:37.160Z,101973.62
2018-05-21T04:06:28.054Z,101976.17
2018-05-21T04:11:19.839Z,101984.35
2018-05-21T04:16:10.754Z,101984.45
2018-05-21T04:21:01.723Z,101977.00
2018-05-21T04:25:53.331Z,101980.29
2018-05-21T04:30:44.304Z,101977.06
2018-05-21T04:35:35.303Z,101984.84
2018-05-21T04:40:27.018Z,101987.89
2018-05-21T04:45:19.435Z,101988.02
2018-05-21T04:50:10.377Z,101982.31
2018-05-21T04:55:02.058Z,101986.62
2018-05-21T04:59:54.481Z,101983.88
2018-05-21T05:04:46.194Z,101976.55
2018-05-21T05:09:37.104Z,101975.07
2018-05-21T05:14:28.011Z,101969.27
2018-05-21T05:19:19.709Z,101972.13
2018-05-21T05:24:10.597Z,101969.67
2018-05-21T05:29:01.545Z,101970.26
2018-05-21T05:33:52.432Z,101967.38
2018-05-21T05:38:43.363Z,101960.33
2018-05-21T05:43:35.042Z,101966.58
2018-05-21T05:48:27.451Z,101960.73
2018-05-21T05:53:18.381Z,101962.24
2018-05-21T05:58:09.363Z,101961.34
2018-05-21T06:03:00.998Z,101956.08
2018-05-21T06:07:52.671Z,101958.16
2018-05-21T06:12:44.457Z,101957.10
2018-05-21T06:17:35.333Z,101945.16
2018-05-21T06:22:26.956Z,101947.64
2018-05-21T06:27:17.891Z,101941.61
2018-05-21T06:32:08.825Z,101935.41
2018-05-21T06:36:59.722Z,101936.56
2018-05-21T06:41:51.437Z,101936.91
2018-05-21T06:46:43.125Z,101937.94
2018-05-21T06:51:34.154Z,101930.43
2018-05-21T06:56:25.092Z,101932.20
2018-05-21T07:01:16.039Z,101928.17
2018-05-21T07:06:07.697Z,101922.30
2018-05-21T07:10:59.351Z,101922.35
2018-05-21T07:15:51.024Z,101920.80
2018-05-21T07:20:43.404Z,101915.61
2018-05-21T07:25:35.069Z,101907.30
2018-05-21T07:30:26.708Z,101903.01
2018-05-21T07:35:18.628Z,101894.52
2018-05-21T07:40:10.999Z,101897.63
2018-05-21T07:45:02.658Z,101895.58
2018-05-21T07:49:53.578Z,101892.13
2018-05-21T07:54:44.494Z,101884.63
2018-05-21T07:59:35.431Z,101879.10
2018-05-21T08:04:26.410Z,101871.88
2018-05-21T08:09:17.311Z,101858.07
2018-05-21T08:14:08.963Z,101860.37
2018-05-21T08:18:59.935Z,101847.32
2018-05-21T08:23:50.852Z,101843.02
2018-05-21T08:28:41.755Z,101839.44
2018-05-21T08:33:32.761Z,101834.02
2018-05-21T08:38:23.724Z,101835.55
2018-05-21T08:43:14.710Z,101824.27
2018-05-21T08:48:05.629Z,101825.41
2018-05-21T08:52:56.876Z,101805.91
2018-05-21T08:57:48.545Z,101813.55
2018-05-21T09:02:39.460Z,101805.83
2018-05-21T09:07:30.393Z,101794.47
2018-05-21T09:12:22.138Z,101793.52
2018-05-21T09:17:13.714Z,101791.09
2018-05-21T09:22:04.608Z,101777.72
2018-05-21T09:26:56.243Z,101777.95
2018-05-21T09:31:47.958Z,101772.17
2018-05-21T09:36:40.381Z,101766.66
2018-05-21T09:41:31.258Z,101766.80
2018-05-21T09:46:22.949Z,101757.22
2018-05-21T09:51:15.668Z,101762.76
2018-05-21T09:56:07.332Z,101750.85
2018-05-21T10:00:58.995Z,101765.45
2018-05-21T10:05:49.878Z,101744.89
2018-05-21T10:10:40.862Z,101737.77
2018-05-21T10:15:32.553Z,101734.23
2018-05-21T10:20:23.465Z,101731.63
2018-05-21T10:25:14.405Z,101726.27
2018-05-21T10:30:05.312Z,101710.45
2018-05-21T10:34:56.275Z,101701.11
2018-05-21T10:39:47.175Z,101699.16
2018-05-21T10:44:39.575Z,101692.28
2018-05-21T10:49:31.990Z,101675.75
2018-05-21T10:54:22.876Z,101669.31
2018-05-21T10:59:14.563Z,101673.38
2018-05-21T11:04:06.972Z,101653.13
2018-05-21T11:08:58.656Z,101653.86
2018-05-21T11:13:49.549Z,101644.47
2018-05-21T11:18:40.529Z,101650.66
2018-05-21T11:23:32.144Z,101643.89
2018-05-21T11:28:23.829Z,101633.50
2018-05-21T11:33:14.712Z,101621.52
2018-05-21T11:38:06.381Z,101625.31
2018-05-21T11:42:58.066Z,101602.70
2018-05-21T11:47:48.972Z,101594.34
2018-05-21T11:52:39.941Z,101591.20
2018-05-21T11:57:31.572Z,101585.95
2018-05-21T12:02:23.651Z,101572.21
2018-05-21T12:07:14.539Z,101574.73
2018-05-21T12:12:06.220Z,101570.44
2018-05-21T12:16:57.848Z,101561.23
2018-05-21T12:21:49.582Z,101562.16
2018-05-21T12:26:41.325Z,101558.30
2018-05-21T12:31:32.239Z,101559.20
2018-05-21T12:36:23.864Z,101551.38
2018-05-21T12:41:14.793Z,101547.16
2018-05-21T12:46:05.735Z,101546.21
2018-05-21T12:50:57.350Z,101544.06
2018-05-21T12:55:48.239Z,101534.20
2018-05-21T13:00:39.906Z,101526.34
2018-05-21T13:05:31.641Z,101526.25
2018-05-21T13:10:23.251Z,101517.49
2018-05-21T13:15:15.675Z,101516.83
2018-05-21T13:20:07.275Z,101497.45
2018-05-21T13:24:58.208Z,101500.57
2018-05-21T13:29:49.865Z,101486.02
2018-05-21T13:34:40.855Z,101489.47
2018-05-21T13:39:31.683Z,101479.98
2018-05-21T13:44:22.585Z,101471.36
2018-05-21T13:49:13.480Z,101467.11
2018-05-21T13:54:05.101Z,101461.20
2018-05-21T13:58:56.838Z,101463.69
2018-05-21T14:03:48.453Z,101459.06
2018-05-21T14:08:39.442Z,101450.30
2018-05-21T14:13:30.372Z,101440.06
2018-05-21T14:18:21.255Z,101439.73
2018-05-21T14:23:12.933Z,101437.64
2018-05-21T14:28:04.568Z,101425.41
2018-05-21T14:32:56.266Z,101420.61
2018-05-21T14:37:47.942Z,101417.52
2018-05-21T14:42:39.548Z,101407.91
2018-05-21T14:47:31.287Z,101406.87
2018-05-21T14:52:22.928Z,101400.51
2018-05-21T14:57:14.569Z,101395.89
2018-05-21T15:02:05.621Z,101382.90
2018-05-21T15:06:56.407Z,101385.00
2018-05-21T15:11:47.305Z,101375.31
2018-05-21T15:16:38.953Z,101372.56
2018-05-21T15:21:30.615Z,101375.49
2018-05-21T15:26:22.261Z,101368.11
2018-05-21T15:31:13.928Z,101359.63
2018-05-21T15:36:05.041Z,101354.27
2018-05-21T15:40:55.941Z,101356.95
2018-05-21T15:45:46.884Z,101346.03
2018-05-21T15:50:37.744Z,101349.42
2018-05-21T15:55:29.389Z,101332.34
2018-05-21T16:00:21.790Z,101335.35
2018-05-21T16:05:13.525Z,101341.38
2018-05-21T16:10:04.445Z,101327.69
2018-05-21T16:14:55.471Z,101323.54
2018-05-21T16:19:46.418Z,101327.33
2018-05-21T16:24:37.272Z,101326.47
2018-05-21T16:29:28.910Z,101317.31
2018-05-21T16:34:20.562Z,101311.61
2018-05-21T16:39:11.502Z,101311.42
2018-05-21T16:44:02.399Z,101299.13
2018-05-21T16:48:54.075Z,101305.24
2018-05-21T16:53:45.809Z,101298.53
2018-05-21T16:58:37.385Z,101303.32
2018-05-21T17:03:29.023Z,101305.73
2018-05-21T17:08:20.703Z,101299.77
2018-05-21T17:13:11.652Z,101295.88
2018-05-21T17:18:03.271Z,101296.69
2018-05-21T17:22:54.983Z,101288.85
2018-05-21T17:27:46.631Z,101285.52
2018-05-21T17:32:38.275Z,101285.16
2018-05-21T17:37:29.928Z,101280.22
2018-05-21T17:42:21.683Z,101289.39
2018-05-21T17:47:12.476Z,101288.28
2018-05-21T17:52:04.217Z,101279.70
2018-05-21T17:56:55.900Z,101284.37
2018-05-21T18:01:46.817Z,101292.79
2018-05-21T18:06:37.809Z,101285.40
2018-05-21T18:11:29.480Z,101284.35
2018-05-21T18:16:20.405Z,101287.52
2018-05-21T18:21:12.775Z,101291.97
2018-05-21T18:26:05.187Z,101294.44
2018-05-21T18:30:56.123Z,101294.19
2018-05-21T18:35:48.908Z,101285.56
2018-05-21T18:40:41.238Z,101292.98
2018-05-21T18:45:32.249Z,101290.41
2018-05-21T18:50:23.140Z,101293.45
2018-05-21T18:55:14.088Z,101286.70
2018-05-21T19:00:05.048Z,101285.56
2018-05-21T19:04:55.956Z,101285.31
2018-05-21T19:09:48.436Z,101289.45
2018-05-21T19:14:39.364Z,101292.92
2018-05-21T19:19:30.334Z,101295.15
2018-05-21T19:24:21.213Z,101298.38
2018-05-21T19:29:12.157Z,101300.12
2018-05-21T19:34:03.075Z,101296.28
2018-05-21T19:38:54.096Z,101305.52
2018-05-21T19:43:45.108Z,101308.28
2018-05-21T19:48:36.030Z,101303.20
2018-05-21T19:53:27.676Z,101305.67
2018-05-21T19:58:19.334Z,101305.12
2018-05-21T20:03:10.272Z,101306.52
2018-05-21T20:08:01.279Z,101304.77
2018-05-21T20:12:52.199Z,101304.17
2018-05-21T20:17:43.189Z,101303.50
2018-05-21T20:22:35.568Z,101303.50
2018-05-21T20:27:26.472Z,101299.42
2018-05-21T20:32:18.182Z,101297.87
2018-05-21T20:37:09.946Z,101298.20
2018-05-21T20:42:00.762Z,101301.62
2018-05-21T20:46:51.689Z,101297.72
2018-05-21T20:51:43.328Z,101298.70
2018-05-21T20:56:34.983Z,101301.36
2018-05-21T21:01:25.870Z,101299.95
2018-05-21T21:06:16.774Z,101306.88
2018-05-21T21:11:07.685Z,101302.86
2018-05-21T21:15:59.331Z,101300.88
2018-05-21T21:20:50.212Z,101300.54
2018-05-21T21:25:41.133Z,101296.20
2018-05-21T21:30:32.767Z,101293.77
2018-05-21T21:35:24.502Z,101302.31
2018-05-21T21:40:16.174Z,101296.23
2018-05-21T21:45:08.578Z,101296.23
2018-05-21T21:49:59.472Z,101283.83
2018-05-21T21:54:51.885Z,101280.33
2018-05-21T21:59:42.769Z,101277.66
2018-05-21T22:04:33.667Z,101284.42
2018-05-21T22:09:25.303Z,101283.23
2018-05-21T22:17:33.115Z,101278.59
2018-05-21T22:22:24.006Z,101267.94
2018-05-21T22:27:15.656Z,101273.57
2018-05-21T22:32:06.552Z,101268.55
2018-05-21T22:36:58.192Z,101262.02
2018-05-21T22:41:49.844Z,101260.67
2018-05-21T22:46:40.738Z,101257.42
2018-05-21T22:51:32.370Z,101254.02
2018-05-21T22:56:24.023Z,101245.03
2018-05-21T23:01:15.658Z,101243.53
2018-05-21T23:06:07.312Z,101245.97
2018-05-21T23:10:58.925Z,101236.00
2018-05-21T23:15:49.973Z,101241.61
2018-05-21T23:20:40.874Z,101238.45
2018-05-21T23:25:31.769Z,101236.27
2018-05-21T23:30:23.400Z,101227.95
2018-05-21T23:35:15.796Z,101230.68
2018-05-21T23:40:07.497Z,101232.30
2018-05-21T23:44:58.407Z,101234.06
2018-05-21T23:49:50.056Z,101230.75
2018-05-21T23:54:41.697Z,101225.59
2018-05-21T23:59:32.677Z,101225.68
